createdAt,value
2022-10-10T00:01:47.081Z,25.30
2022-10-10T00:04:16.315Z,25.30
2022-10-10T00:06:45.564Z,25.30
2022-10-10T00:09:14.740Z,25.30
2022-10-10T00:11:43.944Z,25.40
2022-10-10T00:14:13.229Z,25.40
2022-10-10T00:16:42.531Z,25.40
2022-10-10T00:19:11.783Z,25.50
2022-10-10T00:21:40.979Z,25.50
2022-10-10T00:24:10.503Z,25.50
2022-10-10T00:26:39.614Z,25.60
2022-10-10T00:29:08.883Z,25.60
2022-10-10T00:31:38.037Z,25.60
2022-10-10T00:34:07.219Z,25.70
2022-10-10T00:36:36.511Z,25.70
2022-10-10T00:39:05.945Z,25.80
2022-10-10T00:41:35.187Z,25.80
2022-10-10T00:44:07.906Z,25.90
2022-10-10T00:46:36.885Z,26.00
2022-10-10T00:49:10.834Z,26.10
2022-10-10T00:51:40.335Z,26.10
2022-10-10T00:54:13.619Z,26.20
2022-10-10T00:56:51.789Z,26.20
2022-10-10T00:59:22.179Z,26.30
2022-10-10T01:01:51.361Z,26.30
2022-10-10T01:04:45.252Z,26.30
2022-10-10T01:07:25.560Z,26.30
2022-10-10T01:09:58.958Z,26.40
2022-10-10T01:12:49.568Z,26.40
2022-10-10T01:15:27.874Z,26.40
2022-10-10T01:18:17.045Z,26.50
2022-10-10T01:20:51.584Z,26.60
2022-10-10T01:23:51.591Z,26.60
2022-10-10T01:26:34.069Z,26.60
2022-10-10T01:29:04.236Z,26.70
2022-10-10T01:31:40.110Z,26.70
2022-10-10T01:34:26.709Z,26.70
2022-10-10T01:37:09.865Z,26.70
2022-10-10T01:39:43.372Z,26.80
2022-10-10T01:42:26.197Z,26.90
2022-10-10T01:44:55.806Z,27.00
2022-10-10T01:47:25.800Z,27.00
2022-10-10T01:50:00.156Z,27.10
2022-10-10T01:52:46.778Z,27.10
2022-10-10T01:55:36.298Z,27.20
2022-10-10T01:58:08.531Z,27.10
2022-10-10T02:00:47.362Z,27.10
2022-10-10T02:03:22.209Z,27.20
2022-10-10T02:05:55.649Z,27.20
2022-10-10T02:08:48.888Z,27.20
2022-10-10T02:11:17.755Z,27.20
2022-10-10T02:13:53.353Z,27.20
2022-10-10T02:16:29.343Z,27.20
2022-10-10T02:19:01.382Z,27.20
2022-10-10T02:21:31.536Z,27.30
2022-10-10T02:24:05.551Z,27.40
2022-10-10T02:26:37.979Z,27.50
2022-10-10T02:29:13.472Z,27.70
2022-10-10T02:31:48.435Z,27.80
2022-10-10T02:34:26.719Z,28.00
2022-10-10T02:37:01.063Z,28.10
2022-10-10T02:39:36.529Z,28.30
2022-10-10T02:42:08.604Z,28.40
2022-10-10T02:44:38.921Z,28.50
2022-10-10T02:47:08.267Z,28.50
2022-10-10T02:49:37.843Z,28.50
2022-10-10T02:52:07.123Z,28.60
2022-10-10T02:54:36.400Z,28.60
2022-10-10T02:57:05.622Z,28.60
2022-10-10T02:59:34.866Z,28.50
2022-10-10T03:02:04.116Z,28.50
2022-10-10T03:04:33.270Z,28.40
2022-10-10T03:07:02.641Z,28.40
2022-10-10T03:09:31.877Z,28.40
2022-10-10T03:12:01.080Z,28.40
2022-10-10T03:14:30.403Z,28.40
2022-10-10T03:17:00.013Z,28.40
2022-10-10T03:19:29.192Z,28.40
2022-10-10T03:21:58.579Z,28.50
2022-10-10T03:24:28.060Z,28.40
2022-10-10T03:26:57.245Z,28.40
2022-10-10T03:29:26.691Z,28.40
2022-10-10T03:31:55.893Z,28.50
2022-10-10T03:34:25.070Z,28.50
2022-10-10T03:36:54.332Z,28.50
2022-10-10T03:39:23.481Z,28.50
2022-10-10T03:41:52.847Z,28.50
2022-10-10T03:44:22.008Z,28.50
2022-10-10T03:46:51.249Z,28.50
2022-10-10T03:49:20.506Z,28.50
2022-10-10T03:51:49.713Z,28.50
2022-10-10T03:54:18.905Z,28.50
2022-10-10T03:56:48.202Z,28.50
2022-10-10T03:59:17.614Z,28.50
2022-10-10T04:01:46.838Z,28.50
2022-10-10T04:04:16.099Z,28.60
2022-10-10T04:06:45.430Z,28.60
2022-10-10T04:09:14.684Z,28.60
2022-10-10T04:11:44.731Z,28.60
2022-10-10T04:14:13.951Z,28.70
2022-10-10T04:16:43.230Z,28.80
2022-10-10T04:19:12.655Z,28.80
2022-10-10T04:21:41.889Z,28.80
2022-10-10T04:24:11.322Z,28.90
2022-10-10T04:26:40.595Z,28.90
2022-10-10T04:29:10.350Z,28.90
2022-10-10T04:31:39.660Z,28.80
2022-10-10T04:34:08.801Z,28.80
2022-10-10T04:36:38.285Z,28.80
2022-10-10T04:39:07.522Z,28.80
2022-10-10T04:41:37.776Z,28.80
2022-10-10T04:44:07.037Z,28.80
2022-10-10T04:46:36.329Z,28.70
2022-10-10T04:49:05.646Z,28.70
2022-10-10T04:51:35.917Z,28.70
2022-10-10T04:54:05.498Z,28.60
2022-10-10T04:56:34.826Z,28.60
2022-10-10T04:59:04.379Z,28.60
2022-10-10T05:01:34.576Z,28.60
2022-10-10T05:04:03.914Z,28.60
2022-10-10T05:06:34.397Z,28.60
2022-10-10T05:09:03.609Z,28.60
2022-10-10T05:11:32.928Z,28.60
2022-10-10T05:14:02.288Z,28.60
2022-10-10T05:16:31.845Z,28.60
2022-10-10T05:19:03.043Z,28.70
2022-10-10T05:21:33.126Z,28.70
2022-10-10T05:24:02.455Z,28.70
2022-10-10T05:26:31.699Z,28.80
2022-10-10T05:29:01.125Z,28.80
2022-10-10T05:31:30.918Z,28.80
2022-10-10T05:34:00.292Z,28.80
2022-10-10T05:36:29.547Z,28.70
2022-10-10T05:38:59.184Z,28.70
2022-10-10T05:41:28.623Z,28.70
2022-10-10T05:43:57.887Z,28.70
2022-10-10T05:46:28.946Z,28.70
2022-10-10T05:48:58.207Z,28.80
2022-10-10T05:51:27.892Z,28.70
2022-10-10T05:53:58.020Z,28.70
2022-10-10T05:56:27.344Z,28.70
2022-10-10T05:58:56.658Z,28.70
2022-10-10T06:01:25.826Z,28.70
2022-10-10T06:03:57.371Z,28.70
2022-10-10T06:06:27.302Z,28.70
2022-10-10T06:08:57.295Z,28.70
2022-10-10T06:11:27.426Z,28.60
2022-10-10T06:13:56.876Z,28.60
2022-10-10T06:16:28.676Z,28.60
2022-10-10T06:18:58.910Z,28.70
2022-10-10T06:21:28.243Z,28.70
2022-10-10T06:23:57.736Z,28.70
2022-10-10T06:26:27.072Z,28.80
2022-10-10T06:28:56.316Z,28.90
2022-10-10T06:31:25.696Z,29.00
2022-10-10T06:33:54.980Z,29.10
2022-10-10T06:36:24.226Z,29.10
2022-10-10T06:38:53.541Z,29.10
2022-10-10T06:41:23.206Z,29.10
2022-10-10T06:43:53.228Z,29.10
2022-10-10T06:46:22.515Z,28.90
2022-10-10T06:48:51.860Z,28.90
2022-10-10T06:51:21.211Z,28.90
2022-10-10T06:53:50.881Z,28.80
2022-10-10T06:56:27.376Z,28.70
2022-10-10T06:58:57.811Z,28.70
2022-10-10T07:01:27.987Z,28.70
2022-10-10T07:03:57.597Z,28.70
2022-10-10T07:06:27.764Z,28.80
2022-10-10T07:08:59.630Z,28.80
2022-10-10T07:11:28.845Z,28.80
2022-10-10T07:13:58.047Z,28.70
2022-10-10T07:16:28.543Z,28.70
2022-10-10T07:18:57.827Z,28.70
2022-10-10T07:21:27.110Z,28.60
2022-10-10T07:23:56.349Z,28.70
2022-10-10T07:26:29.284Z,28.70
2022-10-10T07:29:02.291Z,28.70
2022-10-10T07:31:31.630Z,28.70
2022-10-10T07:34:00.987Z,28.70
2022-10-10T07:36:30.223Z,28.60
2022-10-10T07:38:59.775Z,28.60
2022-10-10T07:41:29.149Z,28.60
2022-10-10T07:43:59.158Z,28.50
2022-10-10T07:46:28.479Z,28.50
2022-10-10T07:48:57.858Z,28.50
2022-10-10T07:51:27.149Z,28.50
2022-10-10T07:53:56.495Z,28.50
2022-10-10T07:56:26.409Z,28.40
2022-10-10T07:58:55.713Z,28.40
2022-10-10T08:01:25.594Z,28.30
2022-10-10T08:03:56.871Z,28.30
2022-10-10T08:06:26.370Z,28.40
2022-10-10T08:08:55.602Z,28.40
2022-10-10T08:11:25.127Z,28.50
2022-10-10T08:13:54.431Z,28.50
2022-10-10T08:16:23.629Z,28.50
2022-10-10T08:18:53.379Z,28.50
2022-10-10T08:21:22.644Z,28.50
2022-10-10T08:23:52.180Z,28.50
2022-10-10T08:26:21.816Z,28.50
2022-10-10T08:28:51.154Z,28.60
2022-10-10T08:31:22.640Z,28.60
2022-10-10T08:33:53.307Z,28.50
2022-10-10T08:36:24.559Z,28.60
2022-10-10T08:38:58.747Z,28.60
2022-10-10T08:41:53.292Z,28.60
2022-10-10T08:44:39.424Z,28.60
2022-10-10T08:47:17.613Z,28.60
2022-10-10T08:50:08.535Z,28.60
2022-10-10T08:52:40.805Z,28.60
2022-10-10T08:55:20.382Z,28.50
2022-10-10T08:57:58.234Z,28.50
2022-10-10T09:00:34.388Z,28.40
2022-10-10T09:03:03.837Z,28.40
2022-10-10T09:05:54.159Z,28.40
2022-10-10T09:09:02.530Z,28.40
2022-10-10T09:11:55.287Z,28.30
2022-10-10T09:14:37.946Z,28.30
2022-10-10T09:17:46.325Z,28.20
2022-10-10T09:20:54.973Z,28.20
2022-10-10T09:23:38.446Z,28.20
2022-10-10T09:26:14.079Z,28.20
2022-10-10T09:28:49.576Z,28.10
2022-10-10T09:31:29.535Z,28.10
2022-10-10T09:34:03.212Z,28.00
2022-10-10T09:36:37.829Z,28.00
2022-10-10T09:39:19.472Z,27.90
2022-10-10T09:42:01.255Z,27.90
2022-10-10T09:44:31.241Z,27.90
2022-10-10T09:47:01.702Z,27.90
2022-10-10T09:49:32.311Z,27.80
2022-10-10T09:52:12.844Z,27.80
2022-10-10T09:54:43.583Z,27.80
2022-10-10T09:57:16.822Z,27.70
2022-10-10T09:59:53.601Z,27.70
2022-10-10T10:02:27.672Z,27.60
2022-10-10T10:04:57.575Z,27.60
2022-10-10T10:07:29.284Z,27.60
2022-10-10T10:10:04.041Z,27.50
2022-10-10T10:12:44.381Z,27.50
2022-10-10T10:15:23.997Z,27.50
2022-10-10T10:18:13.355Z,27.60
2022-10-10T10:20:45.563Z,27.60
2022-10-10T10:23:34.814Z,27.60
2022-10-10T10:26:08.432Z,27.60
2022-10-10T10:28:45.719Z,27.60
2022-10-10T10:31:37.123Z,27.50
2022-10-10T10:34:43.725Z,27.50
2022-10-10T10:37:32.950Z,27.40
2022-10-10T10:40:27.263Z,27.40
2022-10-10T10:43:16.347Z,27.30
2022-10-10T10:45:54.002Z,27.30
2022-10-10T10:48:30.705Z,27.30
2022-10-10T10:51:20.599Z,27.30
2022-10-10T10:54:11.456Z,27.20
2022-10-10T10:56:52.368Z,27.20
2022-10-10T11:00:20.606Z,27.10
2022-10-10T11:03:27.751Z,27.10
2022-10-10T11:06:05.170Z,27.00
2022-10-10T11:08:41.097Z,27.00
2022-10-10T11:11:49.710Z,27.00
2022-10-10T11:14:51.724Z,27.00
2022-10-10T11:17:26.149Z,26.90
2022-10-10T11:20:04.925Z,26.80
2022-10-10T11:22:46.263Z,26.70
2022-10-10T11:25:28.091Z,26.70
2022-10-10T11:28:17.491Z,26.60
2022-10-10T11:30:54.961Z,26.60
2022-10-10T11:33:31.102Z,26.60
2022-10-10T11:36:18.749Z,26.60
2022-10-10T11:38:56.407Z,26.60
2022-10-10T11:41:33.099Z,26.60
2022-10-10T11:44:06.013Z,26.50
2022-10-10T11:46:54.858Z,26.50
2022-10-10T11:49:35.621Z,26.40
2022-10-10T11:52:34.148Z,26.40
2022-10-10T11:55:28.352Z,26.30
2022-10-10T11:58:22.258Z,26.30
2022-10-10T12:00:56.488Z,26.30
2022-10-10T12:03:28.063Z,26.30
2022-10-10T12:06:06.112Z,26.30
2022-10-10T12:08:41.512Z,26.30
2022-10-10T12:11:33.243Z,26.20
2022-10-10T12:14:04.055Z,26.20
2022-10-10T12:16:37.699Z,26.20
2022-10-10T12:19:10.355Z,26.10
2022-10-10T12:22:02.670Z,26.10
2022-10-10T12:24:40.950Z,26.10
2022-10-10T12:27:27.444Z,26.10
2022-10-10T12:29:58.592Z,26.10
2022-10-10T12:32:40.286Z,26.00
2022-10-10T12:35:30.584Z,26.00
2022-10-10T12:38:19.276Z,26.00
2022-10-10T12:41:08.412Z,26.00
2022-10-10T12:44:14.792Z,26.00
2022-10-10T12:46:45.032Z,26.00
2022-10-10T12:49:29.665Z,25.90
2022-10-10T12:52:14.924Z,25.90
2022-10-10T12:54:47.620Z,25.90
2022-10-10T12:57:22.163Z,25.90
2022-10-10T12:59:51.563Z,25.80
2022-10-10T13:02:26.990Z,25.80
2022-10-10T13:05:00.264Z,25.80
2022-10-10T13:07:30.191Z,25.80
2022-10-10T13:10:08.205Z,25.80
2022-10-10T13:12:37.490Z,25.70
2022-10-10T13:15:22.523Z,25.80
2022-10-10T13:17:51.739Z,25.80
2022-10-10T13:20:31.248Z,25.80
2022-10-10T13:23:04.557Z,25.80
2022-10-10T13:25:35.725Z,25.80
2022-10-10T13:28:06.990Z,25.80
2022-10-10T13:30:39.286Z,25.80
2022-10-10T13:33:18.876Z,25.80
2022-10-10T13:35:50.443Z,25.70
2022-10-10T13:38:24.976Z,25.70
2022-10-10T13:40:54.821Z,25.70
2022-10-10T13:43:24.716Z,25.70
2022-10-10T13:46:20.924Z,25.70
2022-10-10T13:48:52.033Z,25.70
2022-10-10T13:51:21.727Z,25.70
2022-10-10T13:53:54.097Z,25.70
2022-10-10T13:56:30.394Z,25.70
2022-10-10T13:59:10.101Z,25.70
2022-10-10T14:01:45.493Z,25.70
2022-10-10T14:04:23.608Z,25.60
2022-10-10T14:07:17.814Z,25.60
2022-10-10T14:09:54.241Z,25.60
2022-10-10T14:12:35.303Z,25.60
2022-10-10T14:15:06.327Z,25.50
2022-10-10T14:17:35.506Z,25.50
2022-10-10T14:27:37.275Z,25.40
2022-10-10T14:30:07.169Z,25.40
2022-10-10T14:32:36.291Z,25.40
2022-10-10T14:35:06.104Z,25.40
2022-10-10T14:37:39.893Z,25.40
2022-10-10T14:40:21.593Z,25.40
2022-10-10T14:42:50.995Z,25.30
2022-10-10T14:45:20.272Z,25.40
2022-10-10T14:47:49.538Z,25.30
2022-10-10T14:50:21.709Z,25.30
2022-10-10T14:52:50.962Z,25.30
2022-10-10T14:55:20.393Z,25.30
2022-10-10T14:57:49.996Z,25.30
2022-10-10T15:00:23.067Z,25.30
2022-10-10T15:02:52.362Z,25.30
2022-10-10T15:05:21.645Z,25.30
2022-10-10T15:07:54.900Z,25.30
2022-10-10T15:10:39.120Z,25.20
2022-10-10T15:13:08.466Z,25.20
2022-10-10T15:15:37.686Z,25.20
2022-10-10T15:18:20.940Z,25.30
2022-10-10T15:20:56.508Z,25.30
2022-10-10T15:23:25.746Z,25.30
2022-10-10T15:25:54.966Z,25.20
2022-10-10T15:28:24.240Z,25.20
2022-10-10T15:30:54.157Z,25.20
2022-10-10T15:33:23.342Z,25.20
2022-10-10T15:36:11.481Z,25.20
2022-10-10T15:38:42.206Z,25.10
2022-10-10T15:41:12.367Z,25.10
2022-10-10T15:43:48.400Z,25.10
2022-10-10T15:46:17.702Z,25.10
2022-10-10T15:48:47.456Z,25.10
2022-10-10T15:51:17.064Z,25.10
2022-10-10T15:53:46.369Z,25.00
2022-10-10T15:56:17.944Z,25.00
2022-10-10T15:58:47.216Z,25.00
2022-10-10T16:01:20.032Z,25.10
2022-10-10T16:03:50.908Z,25.00
2022-10-10T16:06:22.424Z,25.00
2022-10-10T16:08:59.372Z,25.00
2022-10-10T16:11:39.412Z,25.00
2022-10-10T16:14:08.773Z,25.00
2022-10-10T16:16:38.902Z,25.10
2022-10-10T16:19:08.169Z,25.10
2022-10-10T16:21:37.581Z,25.20
2022-10-10T16:24:07.003Z,25.10
2022-10-10T16:26:38.279Z,25.10
2022-10-10T16:29:09.365Z,25.10
2022-10-10T16:31:40.581Z,25.10
2022-10-10T16:34:09.980Z,25.10
2022-10-10T16:36:39.295Z,25.10
2022-10-10T16:39:08.828Z,25.00
2022-10-10T16:41:53.433Z,25.00
2022-10-10T16:44:22.682Z,25.00
2022-10-10T16:46:51.853Z,25.00
2022-10-10T16:49:22.803Z,25.00
2022-10-10T16:51:52.246Z,25.00
2022-10-10T16:54:21.427Z,25.00
2022-10-10T16:56:50.689Z,25.00
2022-10-10T17:03:15.192Z,25.00
2022-10-10T17:05:44.773Z,25.10
2022-10-10T17:08:14.167Z,25.00
2022-10-10T17:10:45.977Z,25.00
2022-10-10T17:13:15.276Z,25.00
2022-10-10T17:15:44.538Z,25.00
2022-10-10T17:18:13.770Z,25.00
2022-10-10T17:20:43.529Z,25.00
2022-10-10T17:23:14.025Z,24.90
2022-10-10T17:25:45.909Z,24.90
2022-10-10T17:28:17.434Z,24.80
2022-10-10T17:30:48.657Z,24.80
2022-10-10T17:33:19.906Z,24.80
2022-10-10T17:35:51.548Z,24.80
2022-10-10T17:38:38.363Z,24.80
2022-10-10T17:41:09.335Z,24.80
2022-10-10T17:43:41.520Z,24.80
2022-10-10T17:46:33.692Z,24.70
2022-10-10T17:49:06.039Z,24.70
2022-10-10T17:51:36.332Z,24.70
2022-10-10T17:54:07.808Z,24.70
2022-10-10T17:56:37.671Z,24.70
2022-10-10T17:59:08.089Z,24.70
2022-10-10T18:01:38.483Z,24.70
2022-10-10T18:04:08.750Z,24.70
2022-10-10T18:06:39.489Z,24.70
2022-10-10T18:09:08.877Z,24.70
2022-10-10T18:11:38.103Z,24.60
2022-10-10T18:14:07.378Z,24.60
2022-10-10T18:16:37.014Z,24.60
2022-10-10T18:19:08.844Z,24.60
2022-10-10T18:21:38.191Z,24.60
2022-10-10T18:24:07.721Z,24.60
2022-10-10T18:26:37.891Z,24.60
2022-10-10T18:29:07.197Z,24.60
2022-10-10T18:31:39.615Z,24.60
2022-10-10T18:34:09.287Z,24.60
2022-10-10T18:36:40.963Z,24.60
2022-10-10T18:39:15.159Z,24.60
2022-10-10T18:41:44.637Z,24.60
2022-10-10T18:44:18.007Z,24.60
2022-10-10T18:46:47.840Z,24.60
2022-10-10T18:49:17.220Z,24.60
2022-10-10T18:51:46.711Z,24.60
2022-10-10T18:54:19.015Z,24.50
2022-10-10T18:56:49.357Z,24.40
2022-10-10T18:59:20.493Z,24.40
2022-10-10T19:01:51.720Z,24.40
2022-10-10T19:04:22.077Z,24.40
2022-10-10T19:06:56.194Z,24.40
2022-10-10T19:09:26.660Z,24.40
2022-10-10T19:11:56.577Z,24.30
2022-10-10T19:14:25.886Z,24.30
2022-10-10T19:16:55.161Z,24.30
2022-10-10T19:19:25.301Z,24.30
2022-10-10T19:21:54.626Z,24.30
2022-10-10T19:24:23.897Z,24.20
2022-10-10T19:26:56.255Z,24.30
2022-10-10T19:29:27.451Z,24.30
2022-10-10T19:31:57.573Z,24.30
2022-10-10T19:34:26.873Z,24.30
2022-10-10T19:36:56.236Z,24.20
2022-10-10T19:39:25.514Z,24.20
2022-10-10T19:41:54.706Z,24.20
2022-10-10T19:44:24.002Z,24.20
2022-10-10T19:46:53.247Z,24.20
2022-10-10T19:49:22.539Z,24.20
2022-10-10T19:51:54.377Z,24.20
2022-10-10T19:54:23.677Z,24.20
2022-10-10T19:56:52.909Z,24.20
2022-10-10T19:59:22.127Z,24.20
2022-10-10T20:01:51.426Z,24.20
2022-10-10T20:04:20.738Z,24.10
2022-10-10T20:06:50.110Z,24.10
2022-10-10T20:09:19.419Z,24.10
2022-10-10T20:11:48.651Z,24.10
2022-10-10T20:14:17.964Z,24.10
2022-10-10T20:16:47.232Z,24.10
2022-10-10T20:19:16.547Z,24.20
2022-10-10T20:21:45.747Z,24.20
2022-10-10T20:24:15.414Z,24.20
2022-10-10T20:26:44.795Z,24.20
2022-10-10T20:29:14.131Z,24.20
2022-10-10T20:31:43.326Z,24.20
2022-10-10T20:34:12.532Z,24.20
2022-10-10T20:36:41.818Z,24.20
2022-10-10T20:39:14.374Z,24.20
2022-10-10T20:41:44.605Z,24.20
2022-10-10T20:44:15.892Z,24.20
2022-10-10T20:46:47.194Z,24.20
2022-10-10T20:49:22.165Z,24.10
2022-10-10T20:51:53.217Z,24.10
2022-10-10T20:54:24.690Z,24.10
2022-10-10T20:56:54.047Z,24.10
2022-10-10T20:59:25.784Z,24.10
2022-10-10T21:01:55.197Z,24.00
2022-10-10T21:04:24.545Z,24.10
2022-10-10T21:06:53.801Z,24.10
2022-10-10T21:09:23.024Z,24.10
2022-10-10T21:11:53.001Z,24.00
2022-10-10T21:14:22.285Z,24.10
2022-10-10T21:16:52.339Z,24.00
2022-10-10T21:19:21.907Z,24.00
2022-10-10T21:21:51.303Z,24.00
2022-10-10T21:24:20.635Z,24.00
2022-10-10T21:26:51.766Z,24.00
2022-10-10T21:29:21.527Z,24.00
2022-10-10T21:31:50.835Z,24.00
2022-10-10T21:34:20.502Z,24.00
2022-10-10T21:36:49.956Z,24.00
2022-10-10T21:39:19.181Z,24.00
2022-10-10T21:41:48.403Z,24.00
2022-10-10T21:44:18.032Z,24.00
2022-10-10T21:46:47.293Z,24.00
2022-10-10T21:49:16.693Z,24.00
2022-10-10T21:51:47.708Z,24.00
2022-10-10T21:54:17.180Z,24.00
2022-10-10T21:56:46.463Z,24.00
2022-10-10T21:59:18.938Z,24.00
2022-10-10T22:01:48.136Z,24.00
2022-10-10T22:04:17.405Z,23.90
2022-10-10T22:06:46.743Z,23.90
2022-10-10T22:09:16.074Z,23.80
2022-10-10T22:11:45.373Z,23.80
2022-10-10T22:14:14.815Z,23.80
2022-10-10T22:16:44.148Z,23.80
2022-10-10T22:19:13.438Z,23.90
2022-10-10T22:21:42.787Z,23.80
2022-10-10T22:24:12.078Z,23.90
2022-10-10T22:26:42.920Z,23.80
2022-10-10T22:29:12.269Z,23.70
2022-10-10T22:31:41.579Z,23.70
2022-10-10T22:34:10.811Z,23.70
2022-10-10T22:36:40.019Z,23.70
2022-10-10T22:39:12.343Z,23.70
2022-10-10T22:41:41.504Z,23.70
2022-10-10T22:44:11.733Z,23.70
2022-10-10T22:46:40.878Z,23.70
2022-10-10T22:49:10.041Z,23.60
2022-10-10T22:51:39.875Z,23.60
2022-10-10T22:54:09.129Z,23.70
2022-10-10T22:56:38.409Z,23.70
2022-10-10T22:59:07.722Z,23.70
2022-10-10T23:01:38.340Z,23.70
2022-10-10T23:04:11.813Z,23.60
2022-10-10T23:06:41.866Z,23.60
2022-10-10T23:09:14.917Z,23.60
2022-10-10T23:11:44.551Z,23.60
2022-10-10T23:14:13.970Z,23.60
2022-10-10T23:16:43.334Z,23.60
2022-10-10T23:19:12.569Z,23.60
2022-10-10T23:21:41.763Z,23.60
2022-10-10T23:24:11.126Z,23.60
2022-10-10T23:26:40.478Z,23.50
2022-10-10T23:29:10.939Z,23.50
2022-10-10T23:31:40.134Z,23.50
2022-10-10T23:34:09.327Z,23.50
2022-10-10T23:36:38.612Z,23.40
2022-10-10T23:39:09.938Z,23.40
2022-10-10T23:41:39.589Z,23.40
2022-10-10T23:44:08.928Z,23.40
2022-10-10T23:46:38.149Z,23.40
2022-10-10T23:49:07.332Z,23.40
2022-10-10T23:51:36.551Z,23.50
2022-10-10T23:54:05.890Z,23.50
2022-10-10T23:56:35.158Z,23.50
2022-10-10T23:59:04.340Z,23.50
